Terminal Aerodrome Forecast
Issued by NWS

Home | Current Version | Previous Version | Text Only | Print | Product List | Glossary On
Versions: 1 2 3 4 5 6 7 8 9 10 11 12 13 14 15 16 17
000
FTUS43 KAPX 030520
TAFMBL
TAF
KMBL 030520Z 0306/0406 31007KT P6SM VCSH OVC021
     FM030900 31006KT P6SM OVC017
     FM031900 28007KT P6SM OVC021
     FM040000 00000KT P6SM BKN025=

USA.gov is the U.S. government's official web portal to all federal, state and local government web resources and services.